Tiempo atmosférico en la estación meteorológica de La Victoria de Acentejo, Santa Cruz de Tenerife (567 m.)



Fecha
DESCASC
Temp. máxima en grados centígrados (hora)
DESCASC
Temp. mínima en grados centígrados (hora)
DESCASC
Temp. media en grados centígrados
DESCASC
Racha de viento máxima en m/sg (hora)
DESCASC
Velocidad máxima media en intervalos de 10 minutos(hora)
DESCASC
Precipitaciones diarias en mm
DESCASC
Precipitaciones de 00:00 a 06:00 en mm
DESCASC
Precipitaciones de 06:00 a 12:00 en mm
DESCASC
Precipitaciones de 12:00 a 18:00 en mm
DESCASC
Precipitaciones de 18:00 a 24:00 en mm
DESCASC
02-04-2020 18.9 (15:50) 8.9 (06:30) 13.9 5.83 (14:40) 3.89 (03:30) 0 0 0 0 0
01-04-2020 18.1 (17:40) 9 (07:30) 13.6 5.83 (13:40) 4.17 (05:40) 0 0 0 0 0
31-03-2020 17.1 (16:20) 11 (00:00) 14.1 5.28 (02:30) 4.17 (02:40) 0 0 0 0 0
30-03-2020 18 (13:40) 9.2 (04:20) 13.6 5.83 (19:20) 3.89 (19:50) 0 0 0 0 0
29-03-2020 17.4 (16:30) 9.2 (00:00) 13.3 5.56 (07:10) 3.89 (06:40) 0 0 0 0 0
28-03-2020 15.6 (10:40) 9.5 (00:00) 12.6 5 (11:10) 3.61 (07:50) 1.6 0.2 0 1.4 0
27-03-2020 17.1 (13:00) 11.1 (00:00) 14.1 9.17 (18:00) 5.83 (18:00) 5.8 0.4 0 0 5.4
26-03-2020 16.6 (15:20) 8.9 (00:00) 12.8 5.28 (17:00) 4.17 (04:50) 0 0 0 0 0
25-03-2020 15.6 (11:00) 11.2 (00:00) 13.4 5 (11:20) 3.33 (22:30) 0 0 0 0 0
24-03-2020 17 (16:00) 10.3 (00:00) 13.7 8.06 (05:10) 4.17 (13:20) 8.4 7.8 0.6 0 0
23-03-2020 13.1 (11:30) 9.7 (00:00) 11.4 15 (02:30) 8.61 (04:50) 29 7.6 12 8.2 1.2
22-03-2020 16.7 (14:30) 10.3 (07:50) 13.5 13.61 (23:10) 7.5 (16:20) 21.2 0 1.6 17.8 1.8
21-03-2020 15 (15:00) 10.5 (00:00) 12.8 6.39 (14:20) 3.61 (14:20) 0.8 0.2 0 0 0.6
20-03-2020 17.3 (15:10) 11.9 (00:00) 14.6 6.67 (16:30) 3.89 (14:40) 3.6 0.2 0.4 0 3
19-03-2020 14.4 (13:50) 11.9 (00:00) 13.1 7.78 (15:10) 4.72 (16:00) 7.2 0.6 3.6 1.4 1.6
18-03-2020 15.2 (15:30) 9.9 (00:00) 12.5 6.67 (18:10) 4.44 (16:20) 3.6 1 2.6 0 0
17-03-2020 14 (17:00) 9.8 (00:00) 11.9 7.5 (17:10) 4.72 (01:10) 7.2 1.2 1.6 1.4 3
16-03-2020 15.5 (12:00) 11.2 (00:00) 13.3 8.61 (16:00) 5 (16:00) 11.4 6.4 0 4.4 0.6
15-03-2020 15.7 (15:00) 9.7 (00:00) 12.7 6.94 (15:50) 4.44 (05:50) 13.8 4.4 5.4 1.8 2.2
14-03-2020 16.4 (13:50) 10 (00:00) 13.2 7.78 (12:10) 4.44 (13:20) 0 0 0 0 0
13-03-2020 17.3 (13:10) 10.3 (05:20) 13.8 6.94 (15:40) 3.89 (17:20) 0 0 0 0 0
12-03-2020 24.4 (11:00) 11.5 (00:00) 17.9 8.89 (05:10) 6.67 (05:10) 0 0 0 0 0
11-03-2020 27.1 (10:40) 13.7 (00:00) 20.4 5.56 (23:00) 4.44 (22:10) 0 0 0 0 0
10-03-2020 24.4 (11:10) 14 (00:00) 19.2 11.67 (07:10) 7.22 (06:20) 0 0 0 0 0
09-03-2020 25.5 (12:10) 12.3 (00:00) 18.9 10.56 (10:20) 6.94 (04:40) 0 0 0 0 0
08-03-2020 22.1 (20:00) 11.3 (00:00) 16.7 8.06 (21:40) 5 (21:40) 0 0 0 0 0
07-03-2020 17.9 (16:00) 8.5 (00:00) 13.2 8.33 (13:00) 5.28 (13:00) 0 0 0 0 0
06-03-2020 17.3 (15:10) 8.7 (00:00) 13 11.11 (14:30) 6.67 (14:30) 1.4 1.4 0 0 0
05-03-2020 19.1 (10:10) 11.7 (00:00) 15.4 8.33 (14:20) 5.28 (13:00) 0 0 0 0 0

Gráficas

Temp. máximas Temp. mínimas Temp. medias Precipitaciones Rachas de viento máximas Velocidades máximas media en intervalos de 10 minutos

Datos horarios

Fecha y hora oficial Temperatura (ºC) Velocidad del viento (km/h) Dirección del viento Racha (km/h) Dirección de racha Precipitación (mm) Presión (hPa) Tendencia (hPa) Humedad (%)
2020-04-03 23:00:00 15.7 4 Sudoeste 9 Sudoeste 0 -- -- 78
2020-04-03 22:00:00 16.1 6 Sudoeste 10 Oeste 0 -- -- 78
2020-04-03 21:00:00 17.6 3 Oeste 12 Sur 0 -- -- 74
2020-04-03 20:00:00 18.3 7 Nordeste 15 Norte 0 -- -- 73
2020-04-03 19:00:00 20.1 8 Norte 19 Noroeste 0 -- -- 66
2020-04-03 18:00:00 20.5 13 Norte 22 Norte 0 -- -- 66
2020-04-03 17:00:00 21.3 9 Norte 17 Noroeste 0 -- -- 61
2020-04-03 16:00:00 21.7 6 Noroeste 17 Norte 0 -- -- 58
2020-04-03 15:00:00 20.6 8 Norte 16 Norte 0 -- -- 66
2020-04-03 14:00:00 19.4 10 Norte 18 Noroeste 0 -- -- 72
2020-04-03 13:00:00 18.4 6 Norte 17 Este 0 -- -- 72
2020-04-03 12:00:00 16.9 6 Nordeste 14 Nordeste 0 -- -- 74
2020-04-03 11:00:00 15.9 4 Norte 14 Noroeste 0 -- -- 79
2020-04-03 10:00:00 16 2 Nordeste 10 Sudeste 0 -- -- 75
2020-04-03 09:00:00 12.4 5 Sur 9 Sudeste 0 -- -- 82
2020-04-03 08:00:00 11.8 6 Sur 15 Sudeste 0 -- -- 82
2020-04-03 07:00:00 10.6 8 Sudeste 12 Sudeste 0 -- -- 83
2020-04-03 06:00:00 10.7 9 Sudeste 14 Sudeste 0 -- -- 87
2020-04-03 05:00:00 10.4 9 Sudeste 14 Sudeste 0 -- -- 84
2020-04-03 04:00:00 11.9 7 Sur 13 Sudeste 0 -- -- 85
2020-04-03 03:00:00 11.6 10 Sudeste 16 Sur 0 -- -- 85
2020-04-03 02:00:00 13.4 7 Sur 10 Sur 0 -- -- 85
2020-04-03 01:00:00 13.8 3 Sur 9 Sur 0 -- -- 84
2020-04-03 00:00:00 13.4 0 Calma 8 Sur 0 -- -- 87
2020-04-02 23:00:00 14.2 3 Noroeste 9 Noroeste 0 -- -- 93
2020-04-02 22:00:00 14.5 4 Noroeste 7 Oeste 0 -- -- 90
2020-04-02 21:00:00 14.7 4 Noroeste 7 Norte 0 -- -- 88
2020-04-02 20:00:00 15.1 4 Noroeste 9 Norte 0 -- -- 85
2020-04-02 19:00:00 16 0 Calma 12 Noroeste 0 -- -- 82
2020-04-02 18:00:00 17 7 Noroeste 15 Norte 0 -- -- 75
2020-04-02 17:00:00 18.7 7 Norte 17 Norte 0 -- -- 72
2020-04-02 16:00:00 18.5 9 Noroeste 19 Norte 0 -- -- 70
2020-04-02 15:00:00 18.6 10 Noroeste 21 Noroeste 0 -- -- 67
2020-04-02 14:00:00 17.3 10 Norte 17 Norte 0 -- -- 73
2020-04-02 13:00:00 17.9 8 Noroeste 15 Norte 0 -- -- 70
2020-04-02 12:00:00 17.2 7 Noroeste 13 Noroeste 0 -- -- 70
2020-04-02 11:00:00 16.9 6 Noroeste 12 Noroeste 0 -- -- 63
2020-04-02 10:00:00 14.9 6 Oeste 12 Sur 0 -- -- 67
2020-04-02 09:00:00 10.4 8 Sudeste 13 Sur 0 -- -- 64
2020-04-02 08:00:00 9.5 6 Sur 13 Sur 0 -- -- 63
2020-04-02 07:00:00 9 9 Sur 14 Sur 0 -- -- 68
2020-04-02 06:00:00 9.1 8 Sur 15 Sur 0 -- -- 71
2020-04-02 05:00:00 9.2 10 Sudeste 18 Sur 0 -- -- 75
2020-04-02 04:00:00 9.3 12 Sur 17 Sur 0 -- -- 74
2020-04-02 03:00:00 9.9 10 Sur 14 Sur 0 -- -- 80
2020-04-02 02:00:00 9.9 11 Sudeste 17 Sur 0 -- -- 78
2020-04-02 01:00:00 9.8 10 Sur 14 Sur 0 -- -- 75
2020-04-02 00:00:00 10.5 12 Sur 17 Sur 0 -- -- 81
2020-04-01 23:00:00 12.1 9 Sur 14 Sur 0 -- -- 84
2020-04-01 22:00:00 14.2 0 Calma 5 Nordeste 0 -- -- 85
2020-04-01 21:00:00 14.2 0 Calma 7 Norte 0 -- -- 84
2020-04-01 20:00:00 14.7 5 Norte 12 Noroeste 0 -- -- 80
2020-04-01 19:00:00 15.6 6 Norte 16 Noroeste 0 -- -- 79
2020-04-01 18:00:00 17 9 Norte 17 Norte 0 -- -- 73
2020-04-01 17:00:00 17.6 10 Norte 18 Norte 0 -- -- 73
2020-04-01 16:00:00 17.5 5 Norte 20 Norte 0 -- -- 75
2020-04-01 15:00:00 16.5 10 Norte 19 Norte 0 -- -- 78
2020-04-01 14:00:00 16 9 Nordeste 21 Nordeste 0 -- -- 82
2020-04-01 13:00:00 16.3 8 Norte 20 Norte 0 -- -- 80
2020-04-01 12:00:00 16.5 7 Norte 13 Norte 0 -- -- 77
2020-04-01 11:00:00 15.7 5 Noroeste 10 Norte 0 -- -- 78
2020-04-01 10:00:00 15.2 3 Norte 12 Sur 0 -- -- 80
2020-04-01 09:00:00 10 7 Sur 13 Sur 0 -- -- 85
2020-04-01 08:00:00 9 8 Sur 16 Sur 0 -- -- 85
2020-04-01 07:00:00 9.7 12 Sur 16 Sur 0 -- -- 87
2020-04-01 06:00:00 10.8 12 Sur 18 Sur 0 -- -- 87
2020-04-01 05:00:00 9.7 9 Sur 15 Sur 0 -- -- 87
2020-04-01 04:00:00 10.9 9 Sur 15 Sur 0 -- -- 87
2020-04-01 03:00:00 9.9 12 Sur 16 Sudeste 0 -- -- 88
2020-04-01 02:00:00 10.4 12 Sur 18 Sur 0 -- -- 86
2020-04-01 01:00:00 10.5 11 Sur 14 Sur 0 -- -- 84
2020-04-01 00:00:00 12.4 10 Sur 14 Sur 0 -- -- 82
2020-03-31 23:00:00 13.6 4 Sur 6 Sur 0 -- -- 85
2020-03-31 22:00:00 14.1 0 Calma 5 Norte 0 -- -- 92
2020-03-31 21:00:00 14.2 4 Norte 8 Norte 0 -- -- 91
2020-03-31 20:00:00 14.9 5 Norte 10 Noroeste 0 -- -- 88
2020-03-31 19:00:00 15.3 4 Noroeste 10 Noroeste 0 -- -- 86
2020-03-31 18:00:00 15.5 6 Noroeste 12 Noroeste 0 -- -- 83
2020-03-31 17:00:00 15.8 5 Noroeste 15 Noroeste 0 -- -- 81
2020-03-31 16:00:00 16.8 7 Norte 13 Noroeste 0 -- -- 77
2020-03-31 15:00:00 16.1 8 Norte 14 Norte 0 -- -- 83
2020-03-31 14:00:00 16.4 9 Norte 16 Norte 0 -- -- 84
2020-03-31 13:00:00 16.7 9 Noroeste 13 Noroeste 0 -- -- 82
2020-03-31 12:00:00 15.6 8 Norte 12 Norte 0 -- -- 86
2020-03-31 11:00:00 14.9 4 Norte 11 Norte 0 -- -- 89
2020-03-31 10:00:00 15.6 8 Noroeste 12 Norte 0 -- -- 79
2020-03-31 09:00:00 11.7 6 Sur 12 Sur 0 -- -- 88
2020-03-31 08:00:00 11.2 10 Sur 12 Sur 0 -- -- 91
2020-03-31 07:00:00 13.4 4 Oeste 7 Oeste 0 -- -- 92
2020-03-31 06:00:00 13.1 0 Calma 14 Sudoeste 0 -- -- 87
2020-03-31 05:00:00 13.7 8 Sudoeste 17 Sudoeste 0 -- -- 81
2020-03-31 04:00:00 14 8 Sudoeste 13 Sur 0 -- -- 79
2020-03-31 03:00:00 13.8 10 Sur 19 Sur 0 -- -- 81
2020-03-31 02:00:00 13.5 10 Sur 13 Sur 0 -- -- 83
2020-03-31 01:00:00 13.6 8 Sur 11 Sur 0 -- -- 86
2020-03-31 00:00:00 13.8 4 Sudeste 8 Sur 0 -- -- 89
2020-03-30 23:00:00 14.1 5 Sudoeste 12 Noroeste 0 -- -- 93
2020-03-30 22:00:00 14.7 5 Noroeste 12 Noroeste 0 -- -- 93
2020-03-30 21:00:00 14.6 6 Noroeste 15 Noroeste 0 -- -- 93
2020-03-30 20:00:00 14.5 10 Oeste 21 Oeste 0 -- -- 94
2020-03-30 19:00:00 14.8 12 Noroeste 20 Noroeste 0 -- -- 92
2020-03-30 18:00:00 15 10 Noroeste 17 Noroeste 0 -- -- 88
2020-03-30 17:00:00 16.3 8 Noroeste 16 Norte 0 -- -- 82
2020-03-30 16:00:00 17.2 7 Noroeste 16 Norte 0 -- -- 81
2020-03-30 15:00:00 17.5 9 Norte 16 Norte 0 -- -- 76
2020-03-30 14:00:00 18 8 Noroeste 15 Noroeste 0 -- -- 72
2020-03-30 13:00:00 16.9 6 Noroeste 14 Noroeste 0 -- -- 75
2020-03-30 12:00:00 16.6 5 Noroeste 13 Norte 0 -- -- 77
2020-03-30 11:00:00 16.2 4 Norte 9 Noroeste 0 -- -- 79
2020-03-30 10:00:00 14.6 2 Norte 7 Sur 0 -- -- 82
2020-03-30 09:00:00 10.1 4 Sur 9 Sur 0 -- -- 92
2020-03-30 08:00:00 9.2 6 Sur 9 Sur 0 -- -- 92
2020-03-30 07:00:00 9.3 6 Sur 8 Sur 0 -- -- 91
2020-03-30 06:00:00 9.2 6 Sur 11 Sur 0 -- -- 89
2020-03-30 05:00:00 9.3 8 Sur 10 Sur 0 -- -- 90
2020-03-30 04:00:00 9.3 7 Sur 12 Sur 0 -- -- 87
2020-03-30 03:00:00 9.7 10 Sur 12 Sur 0 -- -- 88
2020-03-30 02:00:00 9.9 9 Sur 10 Sur 0 -- -- 84
2020-03-30 01:00:00 9.7 7 Sur 14 Sudeste 0 -- -- 78
2020-03-30 00:00:00 9.5 10 Sur 13 Sur 0 -- -- 78
2020-03-29 23:00:00 9.7 9 Sur 12 Sur 0 -- -- 77
2020-03-29 22:00:00 10.3 8 Sur 11 Sur 0 -- -- 77
2020-03-29 21:00:00 12.3 4 Sur 8 Noroeste 0 -- -- 87
2020-03-29 20:00:00 14.9 3 Noroeste 9 Noroeste 0 -- -- 83
2020-03-29 19:00:00 14.5 5 Norte 12 Norte 0 -- -- 84
2020-03-29 18:00:00 14.6 5 Norte 13 Noroeste 0 -- -- 81
2020-03-29 17:00:00 16.1 8 Norte 17 Noroeste 0 -- -- 74
2020-03-29 16:00:00 17.2 8 Norte 19 Norte 0 -- -- 67
2020-03-29 15:00:00 16.6 9 Norte 17 Norte 0 -- -- 68
2020-03-29 14:00:00 16.5 9 Noroeste 16 Noroeste 0 -- -- 66
2020-03-29 13:00:00 16.4 9 Noroeste 14 Noroeste 0 -- -- 65
2020-03-29 12:00:00 16.2 7 Noroeste 13 Norte 0 -- -- 62
2020-03-29 11:00:00 15.9 4 Noroeste 9 Noroeste 0 -- -- 62
2020-03-29 10:00:00 13.9 3 Sur 14 Sur 0 -- -- 68
2020-03-29 09:00:00 10.2 12 Sur 18 Sur 0 -- -- 78
2020-03-29 08:00:00 9.8 14 Sur 20 Sur 0 -- -- 77
2020-03-29 07:00:00 10 14 Sur 19 Sur 0 -- -- 79
2020-03-29 06:00:00 10.1 13 Sur 16 Sur 0 -- -- 81
2020-03-29 05:00:00 9.7 7 Sur 13 Sur 0 -- -- 85
2020-03-29 04:00:00 9.9 10 Sur 15 Sur 0 -- -- 87
2020-03-29 00:00:00 9.7 9 Sur 13 Sudeste 0 -- -- 91
2020-03-28 23:00:00 10.6 8 Sur 14 Sur 0 -- -- 92
2020-03-28 22:00:00 10.7 8 Sur 10 Sur 0 -- -- 95
2020-03-28 21:00:00 11.8 2 Sur 4 Nordeste 0 -- -- 95
2020-03-28 20:00:00 12.8 2 Norte 8 Nordeste 0 -- -- 93
2020-03-28 19:00:00 13.5 5 Norte 11 Norte 0 -- -- 90
2020-03-28 18:00:00 13.8 6 Norte 11 Norte 0 -- -- 88
2020-03-28 17:00:00 13.7 5 Norte 12 Nordeste 0.2 -- -- 90
2020-03-28 16:00:00 13 6 Nordeste 14 Norte 0.2 -- -- 93
2020-03-28 15:00:00 13.1 5 Nordeste 18 Norte 1 -- -- 90
2020-03-28 14:00:00 13.3 7 Nordeste 16 Norte 0 -- -- 88
2020-03-28 13:00:00 13.7 4 Norte 13 Norte 0 -- -- 88
2020-03-28 12:00:00 12.9 9 Norte 18 Norte 0 -- -- 89
2020-03-28 11:00:00 13.9 8 Norte 15 Norte 0 -- -- 81
2020-03-28 10:00:00 14.9 4 Nordeste 12 Noroeste 0 -- -- 76
2020-03-28 09:00:00 12.2 4 Este 13 Sudeste 0 -- -- 88
2020-03-28 08:00:00 10 13 Sur 16 Sur 0 -- -- 84
2020-03-28 07:00:00 10.7 8 Sur 13 Sur 0 -- -- 88
2020-03-28 06:00:00 10.1 8 Sur 13 Sur 0 -- -- 90
2020-03-28 05:00:00 10.7 6 Sur 15 Sur 0 -- -- 88
2020-03-28 04:00:00 9.7 10 Sur 13 Sur 0 -- -- 89
2020-03-28 03:00:00 10.7 4 Sudoeste 15 Sudoeste 0 -- -- 84
2020-03-28 02:00:00 11 7 Sudoeste 13 Sudoeste 0.2 -- -- 94
2020-03-28 01:00:00 11 9 Sudoeste 13 Sudoeste 0 -- -- 98
2020-03-28 00:00:00 11.5 9 Norte 21 Noroeste 2 -- -- 99
2020-03-27 23:00:00 11.9 9 Noroeste 27 Noroeste 0 -- -- 99
2020-03-27 22:00:00 11.7 6 Norte 23 Norte 1.6 -- -- 98
2020-03-27 21:00:00 12.2 10 Noroeste 28 Noroeste 1.6 -- -- 98
2020-03-27 20:00:00 12.6 10 Noroeste 22 Noroeste 0.2 -- -- 96
2020-03-27 19:00:00 12.7 13 Norte 25 Norte 0 -- -- 95
2020-03-27 18:00:00 13.4 21 Norte 33 Norte 0 -- -- 91
2020-03-27 17:00:00 15 13 Noroeste 22 Noroeste 0 -- -- 83
2020-03-27 16:00:00 15 13 Norte 21 Norte 0 -- -- 85
2020-03-27 15:00:00 15.2 12 Norte 20 Norte 0 -- -- 78
2020-03-27 14:00:00 16.1 12 Norte 19 Norte 0 -- -- 73
2020-03-27 13:00:00 17.1 9 Noroeste 21 Noroeste 0 -- -- 71
2020-03-27 12:00:00 16.4 10 Norte 17 Norte 0 -- -- 71
2020-03-27 11:00:00 15.7 8 Noroeste 13 Noroeste 0 -- -- 82
2020-03-27 10:00:00 14.9 8 Noroeste 12 Norte 0 -- -- 80
2020-03-27 09:00:00 13.6 5 Oeste 12 Oeste 0 -- -- 83
2020-03-27 08:00:00 12.2 4 Oeste 8 Oeste 0 -- -- 88
2020-03-27 07:00:00 11.9 5 Oeste 10 Sudoeste 0 -- -- 87
2020-03-27 06:00:00 11.4 8 Sudoeste 13 Sudoeste 0.2 -- -- 91
2020-03-27 05:00:00 11.5 4 Sur 8 Sur 0 -- -- 89
2020-03-27 04:00:00 11.4 3 Sudeste 11 Sur 0 -- -- 88
2020-03-27 03:00:00 11.8 0 Calma 16 Sur 0 -- -- 83
2020-03-27 02:00:00 11.6 4 Sur 10 Oeste 0.2 -- -- 90
2020-03-27 01:00:00 12.1 5 Sudoeste 6 Sudoeste 0 -- -- 88
2020-03-27 00:00:00 12 5 Sur 7 Sur 0 -- -- 87
2020-03-26 23:00:00 11.8 3 Sudoeste 8 Sur 0 -- -- 86
2020-03-26 22:00:00 11.3 6 Sur 8 Sur 0 -- -- 88
2020-03-26 21:00:00 12.4 3 Norte 6 Norte 0 -- -- 89
2020-03-26 20:00:00 12.6 3 Norte 9 Norte 0 -- -- 87
2020-03-26 19:00:00 13.7 6 Nordeste 15 Norte 0 -- -- 80
2020-03-26 18:00:00 14.6 9 Norte 19 Norte 0 -- -- 76
2020-03-26 17:00:00 15.1 11 Norte 19 Norte 0 -- -- 77
2020-03-26 16:00:00 16 5 Noroeste 14 Norte 0 -- -- 58
2020-03-26 15:00:00 15.5 6 Noroeste 16 Norte 0 -- -- 67
2020-03-26 14:00:00 15.5 9 Norte 18 Norte 0 -- -- 65
2020-03-26 13:00:00 15.3 8 Norte 17 Norte 0 -- -- 71
2020-03-26 12:00:00 14.7 7 Norte 15 Norte 0 -- -- 73
2020-03-26 11:00:00 15 6 Norte 11 Noroeste 0 -- -- 70
2020-03-26 10:00:00 14.3 2 Oeste 8 Norte 0 -- -- 70
2020-03-26 09:00:00 13.4 2 Sur 8 Sudeste 0 -- -- 71
2020-03-26 08:00:00 10.9 7 Sudeste 12 Sur 0 -- -- 77
2020-03-26 07:00:00 10.1 9 Sur 16 Sur 0 -- -- 79
2020-03-26 06:00:00 9.2 10 Sur 14 Sudeste 0 -- -- 82
2020-03-26 05:00:00 10 15 Sur 18 Sur 0 -- -- 79
2020-03-26 04:00:00 10.1 7 Sur 14 Sur 0 -- -- 80
2020-03-26 03:00:00 10.5 11 Sur 18 Sur 0 -- -- 77
2020-03-26 02:00:00 11.1 5 Sur 14 Sur 0 -- -- 81
2020-03-26 01:00:00 11.6 10 Sur 14 Sur 0 -- -- 81
2020-03-26 00:00:00 11.2 7 Sur 11 Sur 0 -- -- 79
2020-03-25 23:00:00 11.6 6 Sur 17 Sur 0 -- -- 75
2020-03-25 22:00:00 11.7 10 Sur 13 Sudeste 0 -- -- 75
2020-03-25 21:00:00 12 9 Sudeste 13 Sudeste 0 -- -- 76
2020-03-25 20:00:00 12.6 2 Sudeste 6 Norte 0 -- -- 82
2020-03-25 19:00:00 13.1 4 Norte 8 Nordeste 0 -- -- 82
2020-03-25 18:00:00 13.6 0 Calma 15 Sudoeste 0 -- -- 76
2020-03-25 17:00:00 13.2 10 Sudoeste 15 Sur 0 -- -- 76
2020-03-25 16:00:00 14 7 Norte 15 Norte 0 -- -- 81
2020-03-25 15:00:00 14.1 10 Norte 17 Nordeste 0 -- -- 83
2020-03-25 14:00:00 14.8 9 Norte 17 Norte 0 -- -- 79
2020-03-25 13:00:00 14.9 6 Norte 17 Norte 0 -- -- 80
2020-03-25 12:00:00 14.3 9 Norte 18 Nordeste 0 -- -- 81
2020-03-25 11:00:00 15.6 7 Norte 14 Norte 0 -- -- 74
2020-03-25 10:00:00 14.9 6 Noroeste 10 Noroeste 0 -- -- 74
2020-03-25 09:00:00 13.4 3 Este 9 Sur 0 -- -- 77
2020-03-25 08:00:00 11.7 7 Sur 16 Sur 0 -- -- 82
2020-03-25 07:00:00 11.6 5 Sudeste 11 Sudeste 0 -- -- 86
2020-03-25 06:00:00 11.6 3 Sudeste 13 Sur 0 -- -- 83
2020-03-25 05:00:00 11.6 9 Sur 12 Sur 0 -- -- 83
2020-03-25 04:00:00 11.3 6 Sur 8 Sur 0 -- -- 89
2020-03-25 03:00:00 11.7 4 Sudoeste 9 Sudoeste 0 -- -- 84
2020-03-25 02:00:00 11.7 5 Sudoeste 11 Sudoeste 0 -- -- 83
2020-03-25 01:00:00 12.4 6 Sudoeste 11 Oeste 0 -- -- 76
2020-03-25 00:00:00 12.4 6 Sudoeste 12 Sudoeste 0 -- -- 72
2020-03-24 23:00:00 10.3 5 Sur 13 Sur 0 -- -- 83
2020-03-24 22:00:00 11.1 5 Sudoeste 10 Sudoeste 0 -- -- 88
2020-03-24 21:00:00 11.5 6 Sudoeste 10 Sudoeste 0 -- -- 92
2020-03-24 20:00:00 12.6 7 Norte 14 Norte 0 -- -- 89
2020-03-24 19:00:00 13.9 8 Norte 17 Norte 0 -- -- 83
2020-03-24 18:00:00 13.9 9 Norte 17 Norte 0 -- -- 85
2020-03-24 17:00:00 15.1 5 Norte 17 Noroeste 0 -- -- 78
2020-03-24 16:00:00 17 8 Noroeste 17 Noroeste 0 -- -- 75
2020-03-24 15:00:00 13.6 8 Nordeste 23 Nordeste 0 -- -- 92
2020-03-24 14:00:00 12.3 13 Nordeste 26 Nordeste 0 -- -- 96
2020-03-24 13:00:00 14.8 12 Norte 19 Noroeste 0 -- -- 86
2020-03-24 12:00:00 15.3 6 Oeste 17 Norte 0 -- -- 81
2020-03-24 11:00:00 14.2 10 Noroeste 17 Noroeste 0 -- -- 89
2020-03-24 10:00:00 13.1 7 Noroeste 10 Oeste 0 -- -- 88
2020-03-24 09:00:00 12.7 4 Sudoeste 13 Oeste 0.4 -- -- 88
2020-03-24 08:00:00 12.1 4 Oeste 24 Noroeste 0.2 -- -- 93
2020-03-24 07:00:00 11.8 6 Norte 15 Oeste 0 -- -- 94
2020-03-24 06:00:00 12 4 Noroeste 29 Oeste 0 -- -- 94
2020-03-24 05:00:00 11.8 10 Oeste 24 Oeste 1.4 -- -- 94
2020-03-24 04:00:00 11.6 6 Noroeste 22 Noroeste 3.6 -- -- 93
2020-03-24 03:00:00 11.7 11 Nordeste 26 Noroeste 2.2 -- -- 93
2020-03-24 02:00:00 11.9 8 Noroeste 19 Oeste 0.6 -- -- 92
2020-03-24 01:00:00 12 10 Oeste 19 Oeste 0 -- -- 89
2020-03-24 00:00:00 11.9 10 Noroeste 32 Noroeste 0 -- -- 90
2020-03-23 23:00:00 11.8 10 Oeste 22 Noroeste 0.2 -- -- 94
2020-03-23 22:00:00 11.6 13 Noroeste 23 Noroeste 0.6 -- -- 96
2020-03-23 21:00:00 11.8 10 Norte 19 Norte 0 -- -- 97
2020-03-23 20:00:00 11.7 11 Norte 30 Norte 0.4 -- -- 95
2020-03-23 19:00:00 12.2 13 Noroeste 22 Noroeste 0 -- -- 93
2020-03-23 18:00:00 12.2 11 Noroeste 22 Norte 0 -- -- 95
2020-03-23 17:00:00 12 9 Noroeste 27 Noroeste 0.2 -- -- 96
2020-03-23 16:00:00 11.8 7 Noroeste 24 Oeste 3.2 -- -- 97
2020-03-23 15:00:00 11.4 14 Noroeste 27 Noroeste 1.2 -- -- 96
2020-03-23 14:00:00 11.5 15 Noroeste 29 Noroeste 0.6 -- -- 97
2020-03-23 13:00:00 11.6 18 Noroeste 26 Noroeste 3 -- -- 93
2020-03-23 12:00:00 10.9 13 Norte 28 Noroeste 3.4 -- -- 92
2020-03-23 11:00:00 12.2 17 Norte 28 Norte 0 -- -- 87
2020-03-23 10:00:00 11.4 17 Norte 35 Norte 0 -- -- 93
2020-03-23 09:00:00 10.5 11 Norte 38 Norte 1.2 -- -- 96
2020-03-23 08:00:00 10 14 Norte 38 Norte 4.4 -- -- 97
2020-03-23 07:00:00 10.7 22 Norte 44 Noroeste 3 -- -- 93
2020-03-23 06:00:00 10.4 27 Norte 43 Norte 0 -- -- 95
2020-03-23 05:00:00 9.7 21 Norte 49 Norte 3 -- -- 96
2020-03-23 04:00:00 10.3 21 Noroeste 46 Norte 0.2 -- -- 96
2020-03-23 03:00:00 10.4 20 Noroeste 54 Noroeste 1 -- -- 95
2020-03-23 02:00:00 11.2 23 Noroeste 46 Noroeste 0 -- -- 88
2020-03-23 01:00:00 11.1 22 Noroeste 50 Noroeste 3.4 -- -- 95
2020-03-23 00:00:00 11.2 22 Noroeste 49 Noroeste 0 -- -- 94
2020-03-22 23:00:00 11.4 23 Noroeste 49 Noroeste 1 -- -- 94
2020-03-22 22:00:00 11.3 23 Noroeste 37 Oeste 0.2 -- -- 93
2020-03-22 21:00:00 10.8 10 Oeste 36 Noroeste 0.4 -- -- 95
2020-03-22 20:00:00 11 16 Noroeste 32 Noroeste 0.2 -- -- 94
2020-03-22 19:00:00 11.5 15 Noroeste 35 Noroeste 0 -- -- 97
2020-03-22 18:00:00 10.8 13 Noroeste 30 Oeste 3.4 -- -- 99
2020-03-22 17:00:00 10.7 12 Noroeste 41 Norte 11 -- -- 98
2020-03-22 16:00:00 11.8 22 Norte 38 Noroeste 3.4 -- -- 94
2020-03-22 15:00:00 15.9 19 Noroeste 31 Noroeste 0 -- -- 62
2020-03-22 14:00:00 16.4 17 Noroeste 31 Noroeste 0 -- -- 62
2020-03-22 13:00:00 16 14 Noroeste 28 Noroeste 0 -- -- 63
2020-03-22 12:00:00 15.3 15 Oeste 25 Oeste 0 -- -- 62
2020-03-22 11:00:00 12.9 6 Noroeste 27 Noroeste 0 -- -- 84
2020-03-22 10:00:00 13 9 Oeste 16 Oeste 0 -- -- 75
2020-03-22 09:00:00 10.9 9 Sudoeste 19 Oeste 0.4 -- -- 89
2020-03-22 08:00:00 10.4 7 Norte 16 Norte 1.2 -- -- 91
2020-03-22 07:00:00 11 3 Oeste 12 Oeste 0 -- -- 87
2020-03-22 06:00:00 10.9 6 Oeste 13 Oeste 0 -- -- 84
2020-03-22 05:00:00 11 6 Oeste 16 Sudoeste 0 -- -- 81
2020-03-22 04:00:00 10.7 12 Sudoeste 16 Sudoeste 0 -- -- 79
2020-03-22 03:00:00 11.3 5 Oeste 12 Oeste 0 -- -- 75
2020-03-22 02:00:00 11.3 6 Oeste 14 Sudoeste 0 -- -- 78
2020-03-22 01:00:00 11.3 7 Oeste 13 Sudoeste 0 -- -- 81
2020-03-22 00:00:00 11.1 7 Sudoeste 12 Oeste 0 -- -- 84
2020-03-21 23:00:00 11.3 5 Oeste 10 Oeste 0 -- -- 86
2020-03-21 22:00:00 11.3 5 Oeste 15 Oeste 0.6 -- -- 88
2020-03-21 21:00:00 11.9 8 Noroeste 21 Nordeste 0 -- -- 84
2020-03-21 20:00:00 12.2 10 Norte 18 Nordeste 0 -- -- 86
2020-03-21 19:00:00 12.5 10 Norte 20 Norte 0 -- -- 80
2020-03-21 18:00:00 13.4 12 Norte 20 Norte 0 -- -- 73
2020-03-21 17:00:00 14.3 13 Norte 21 Norte 0 -- -- 72
2020-03-21 16:00:00 14.6 10 Norte 19 Norte 0 -- -- 66
2020-03-21 15:00:00 15 9 Norte 23 Norte 0 -- -- 65
2020-03-21 14:00:00 14.6 13 Norte 22 Norte 0 -- -- 67
2020-03-21 13:00:00 13.9 10 Nordeste 18 Norte 0 -- -- 68
2020-03-21 12:00:00 14.2 8 Norte 17 Nordeste 0 -- -- 62
2020-03-21 11:00:00 13.5 8 Norte 21 Nordeste 0 -- -- 64
2020-03-21 10:00:00 12.6 9 Nordeste 19 Este 0 -- -- 70
2020-03-21 09:00:00 11.5 8 Sudeste 17 Sudeste 0 -- -- 84
2020-03-21 08:00:00 10.8 7 Sudeste 13 Sudeste 0 -- -- 81
2020-03-21 07:00:00 10.7 3 Sudeste 14 Sur 0 -- -- 84
2020-03-21 06:00:00 10.9 2 Sur 8 Sudeste 0 -- -- 87
2020-03-21 05:00:00 11 5 Este 10 Nordeste 0 -- -- 85
2020-03-21 04:00:00 11.2 3 Este 10 Este 0 -- -- 86
2020-03-21 03:00:00 11.4 6 Sudeste 19 Sudeste 0 -- -- 87
2020-03-21 02:00:00 11.7 0 Calma 13 Oeste 0 -- -- 93
2020-03-21 01:00:00 11.4 2 Este 12 Este 0.2 -- -- 96
2020-03-21 00:00:00 11.9 2 Sudoeste 12 Norte 0.8 -- -- 97
2020-03-20 23:00:00 12.2 4 Norte 13 Noroeste 1.2 -- -- 97
2020-03-20 22:00:00 12.6 4 Norte 12 Norte 1 -- -- 96
2020-03-20 21:00:00 12 5 Sudeste 13 Nordeste 0 -- -- 96
2020-03-20 20:00:00 12.1 3 Nordeste 14 Nordeste 0 -- -- 96
2020-03-20 19:00:00 12.4 9 Nordeste 16 Norte 0 -- -- 93
2020-03-20 18:00:00 13.7 7 Nordeste 17 Norte 0 -- -- 85
2020-03-20 17:00:00 13.7 11 Nordeste 24 Norte 0 -- -- 90
2020-03-20 16:00:00 16.1 11 Norte 22 Norte 0 -- -- 70
2020-03-20 15:00:00 17 9 Norte 22 Noroeste 0 -- -- 60
2020-03-20 14:00:00 16 9 Norte 20 Norte 0 -- -- 72
2020-03-20 13:00:00 15.2 9 Nordeste 21 Norte 0 -- -- 80
2020-03-20 12:00:00 15 10 Norte 19 Nordeste 0 -- -- 80
2020-03-20 11:00:00 13.7 10 Norte 17 Norte 0 -- -- 84
2020-03-20 10:00:00 13.8 8 Norte 14 Oeste 0 -- -- 85
2020-03-20 09:00:00 13 7 Oeste 13 Oeste 0 -- -- 86
2020-03-20 08:00:00 12.3 3 Norte 14 Oeste 0.4 -- -- 91
2020-03-20 07:00:00 12.2 7 Sudoeste 11 Sudoeste 0 -- -- 91
2020-03-20 06:00:00 12.5 2 Norte 12 Oeste 0.2 -- -- 93
2020-03-20 05:00:00 12.3 9 Sudoeste 15 Sudoeste 0 -- -- 93
2020-03-20 04:00:00 12.2 6 Sudoeste 10 Sudoeste 0 -- -- 96
2020-03-20 03:00:00 12.2 3 Noroeste 10 Sudoeste 0 -- -- 97
2020-03-20 02:00:00 12.2 2 Oeste 10 Norte 0 -- -- 99
2020-03-20 01:00:00 12.7 3 Noroeste 9 Noroeste 0 -- -- 99
2020-03-20 00:00:00 12.8 6 Noroeste 15 Norte 0 -- -- 99
2020-03-19 23:00:00 12.9 12 Noroeste 27 Noroeste 0 -- -- 99
2020-03-19 22:00:00 12.8 9 Noroeste 15 Norte 0.8 -- -- 98
2020-03-19 21:00:00 13.1 6 Norte 15 Norte 0 -- -- 98
2020-03-19 20:00:00 13.5 12 Norte 24 Norte 0.8 -- -- 98
2020-03-19 19:00:00 13.8 5 Norte 18 Norte 0 -- -- 97
2020-03-19 18:00:00 14 13 Norte 28 Norte 0 -- -- 98
2020-03-19 17:00:00 13.9 14 Nordeste 24 Norte 0 -- -- 98
2020-03-19 16:00:00 14 17 Norte 28 Nordeste 1.4 -- -- 98
2020-03-19 15:00:00 14.3 12 Norte 23 Norte 0 -- -- 97
2020-03-19 14:00:00 14.4 12 Norte 24 Norte 0 -- -- 97
2020-03-19 13:00:00 14.1 12 Norte 27 Noroeste 0 -- -- 97
2020-03-19 12:00:00 13.7 7 Noroeste 17 Noroeste 0.6 -- -- 96
2020-03-19 11:00:00 13.3 11 Noroeste 23 Oeste 1.8 -- -- 96
2020-03-19 10:00:00 13.1 9 Oeste 18 Noroeste 0.6 -- -- 93
2020-03-19 09:00:00 12.6 10 Oeste 22 Noroeste 0.4 -- -- 90
2020-03-19 08:00:00 13 8 Oeste 25 Noroeste 0 -- -- 84
2020-03-19 07:00:00 12.4 7 Noroeste 20 Sudoeste 0.2 -- -- 87
2020-03-19 06:00:00 12.2 8 Oeste 19 Oeste 0.4 -- -- 89
2020-03-19 05:00:00 12.1 9 Noroeste 21 Oeste 0.2 -- -- 90
2020-03-19 04:00:00 12.5 9 Noroeste 20 Oeste 0 -- -- 89
2020-03-19 03:00:00 12.4 8 Noroeste 18 Noroeste 0 -- -- 85
2020-03-19 02:00:00 12.6 12 Noroeste 22 Norte 0 -- -- 76
2020-03-19 01:00:00 12.4 9 Noroeste 19 Noroeste 0 -- -- 75
2020-03-19 00:00:00 12 7 Oeste 21 Noroeste 0 -- -- 80
2020-03-18 23:00:00 12 8 Noroeste 20 Oeste 0 -- -- 89
2020-03-18 22:00:00 11.9 6 Noroeste 19 Norte 0 -- -- 91
2020-03-18 21:00:00 12.4 9 Noroeste 17 Noroeste 0 -- -- 84
2020-03-18 20:00:00 12.5 10 Noroeste 22 Noroeste 0 -- -- 82
2020-03-18 19:00:00 12.7 13 Noroeste 24 Noroeste 0 -- -- 84
2020-03-18 18:00:00 12.9 13 Noroeste 23 Noroeste 0 -- -- 82
2020-03-18 17:00:00 13.4 6 Norte 24 Norte 0 -- -- 82
2020-03-18 16:00:00 13.9 13 Norte 23 Norte 0 -- -- 78
2020-03-18 15:00:00 14.1 15 Norte 23 Norte 0 -- -- 75
2020-03-18 14:00:00 14.4 13 Norte 24 Norte 0 -- -- 78
2020-03-18 13:00:00 14 10 Norte 20 Norte 0 -- -- 75
2020-03-18 12:00:00 14.1 9 Noroeste 17 Norte 0 -- -- 70
2020-03-18 11:00:00 13.9 7 Noroeste 14 Oeste 0 -- -- 73
2020-03-18 10:00:00 12.8 3 Este 15 Sudoeste 0 -- -- 73
2020-03-18 09:00:00 11.2 5 Sudoeste 16 Sudoeste 0.2 -- -- 87
2020-03-18 08:00:00 10.3 9 Sudoeste 13 Sudoeste 0 -- -- 92
2020-03-18 07:00:00 9.9 5 Noroeste 23 Norte 2.4 -- -- 92
2020-03-18 06:00:00 11 2 Oeste 12 Sur 0 -- -- 81
2020-03-18 05:00:00 10.6 7 Sudeste 15 Este 0 -- -- 87
2020-03-18 04:00:00 10.9 7 Sudoeste 14 Oeste 0 -- -- 87
2020-03-18 03:00:00 10.6 4 Sudoeste 18 Sudoeste 0.4 -- -- 91
2020-03-18 02:00:00 10.6 8 Noroeste 16 Oeste 0.6 -- -- 93
2020-03-18 01:00:00 10.8 6 Sur 12 Sur 0 -- -- 92
2020-03-18 00:00:00 10 3 Sur 24 Nordeste 2.6 -- -- 95
2020-03-17 23:00:00 11.1 6 Noroeste 19 Noroeste 0 -- -- 91
2020-03-17 22:00:00 11.1 5 Nordeste 18 Norte 0.2 -- -- 94
2020-03-17 21:00:00 11.4 2 Noroeste 11 Nordeste 0 -- -- 94
2020-03-17 20:00:00 11 5 Nordeste 15 Nordeste 0.2 -- -- 94
2020-03-17 19:00:00 12 5 Norte 18 Norte 0 -- -- 87
2020-03-17 18:00:00 12.5 7 Norte 27 Nordeste 0 -- -- 87
2020-03-17 17:00:00 14 10 Norte 19 Nordeste 0 -- -- 81
2020-03-17 16:00:00 12.8 13 Nordeste 25 Nordeste 0 -- -- 86
2020-03-17 15:00:00 12 10 Nordeste 24 Nordeste 0.4 -- -- 91
2020-03-17 14:00:00 12.9 11 Nordeste 22 Sudeste 1 -- -- 88
2020-03-17 13:00:00 12.8 6 Nordeste 18 Este 0 -- -- 85
2020-03-17 12:00:00 11.2 8 Nordeste 15 Norte 1 -- -- 91
2020-03-17 11:00:00 11.9 7 Este 13 Este 0 -- -- 81
2020-03-17 10:00:00 11.5 9 Sudeste 22 Este 0 -- -- 84
2020-03-17 09:00:00 10.7 6 Sudeste 17 Este 0.2 -- -- 91
2020-03-17 08:00:00 10.3 10 Sudeste 17 Este 0.2 -- -- 90
2020-03-17 07:00:00 10 5 Sudeste 15 Sudeste 0.2 -- -- 91
2020-03-17 06:00:00 10.4 9 Sudeste 24 Este 0.2 -- -- 90
2020-03-17 05:00:00 10.2 6 Sudeste 19 Sudeste 0.6 -- -- 92
2020-03-17 04:00:00 10.3 4 Sudeste 21 Sudeste 0.2 -- -- 89
2020-03-17 03:00:00 10.5 8 Sudeste 20 Este 0 -- -- 88
2020-03-17 02:00:00 10.4 7 Sudeste 25 Este 0.2 -- -- 92
2020-03-17 01:00:00 10.8 13 Sudeste 25 Nordeste 0 -- -- 91
2020-03-17 00:00:00 11.6 5 Nordeste 15 Este 0.2 -- -- 88
2020-03-16 23:00:00 11.4 8 Este 17 Este 0 -- -- 92
2020-03-16 22:00:00 11.9 8 Este 17 Nordeste 0 -- -- 95
2020-03-16 21:00:00 11.8 4 Nordeste 23 Nordeste 0 -- -- 96
2020-03-16 20:00:00 12.1 8 Nordeste 19 Nordeste 0 -- -- 96
2020-03-16 19:00:00 12.1 11 Nordeste 26 Este 0.4 -- -- 96
2020-03-16 18:00:00 12.3 4 Sudeste 18 Nordeste 3.2 -- -- 95
2020-03-16 17:00:00 12.5 8 Nordeste 28 Nordeste 0 -- -- 93
2020-03-16 16:00:00 13.2 18 Nordeste 31 Nordeste 0 -- -- 91
2020-03-16 15:00:00 13.4 7 Nordeste 17 Norte 1 -- -- 91
2020-03-16 14:00:00 13.9 3 Nordeste 15 Nordeste 0.2 -- -- 82
2020-03-16 13:00:00 15.3 5 Norte 17 Norte 0 -- -- 69
2020-03-16 12:00:00 15.5 4 Noroeste 13 Norte 0 -- -- 69
2020-03-16 11:00:00 14.6 7 Nordeste 20 Este 0 -- -- 68
2020-03-16 10:00:00 12.9 7 Nordeste 13 Norte 0 -- -- 80
2020-03-16 09:00:00 12.5 5 Sudeste 10 Sur 0 -- -- 80
2020-03-16 08:00:00 11.9 3 Sudeste 21 Este 0 -- -- 86
2020-03-16 07:00:00 11.4 10 Este 18 Este 0 -- -- 91
2020-03-16 06:00:00 11.7 9 Sur 20 Este 0 -- -- 91
2020-03-16 05:00:00 11.8 8 Este 22 Este 0 -- -- 95
2020-03-16 04:00:00 12.2 10 Nordeste 18 Nordeste 1.8 -- -- 95
2020-03-16 03:00:00 12 9 Este 17 Este 2.4 -- -- 94
2020-03-16 02:00:00 12 3 Sur 16 Sudeste 1.2 -- -- 91
2020-03-16 01:00:00 11.8 7 Sudeste 17 Nordeste 1 -- -- 92
2020-03-16 00:00:00 11.3 10 Sudoeste 19 Este 0.6 -- -- 93
2020-03-15 23:00:00 12 5 Nordeste 12 Sudoeste 1.2 -- -- 88
2020-03-15 22:00:00 12.1 7 Sudoeste 9 Sudoeste 0 -- -- 87
2020-03-15 21:00:00 12.2 4 Norte 15 Norte 0 -- -- 87
2020-03-15 20:00:00 12.4 6 Oeste 14 Oeste 0 -- -- 87
2020-03-15 19:00:00 12.6 4 Este 16 Noroeste 0.4 -- -- 89
2020-03-15 18:00:00 13.2 6 Noroeste 16 Oeste 0 -- -- 84
2020-03-15 17:00:00 13 8 Sudoeste 15 Oeste 0.2 -- -- 82
2020-03-15 16:00:00 11.9 10 Nordeste 25 Nordeste 0.6 -- -- 87
2020-03-15 15:00:00 15.7 9 Noroeste 17 Noroeste 0 -- -- 69
2020-03-15 14:00:00 12.9 10 Sudoeste 17 Nordeste 1 -- -- 87
2020-03-15 13:00:00 13.4 9 Oeste 18 Norte 0 -- -- 79
2020-03-15 12:00:00 13.9 6 Noroeste 18 Sudoeste 0 -- -- 80
2020-03-15 11:00:00 11.7 10 Sudoeste 15 Sudoeste 2.4 -- -- 89
2020-03-15 10:00:00 10.9 4 Oeste 19 Norte 3 -- -- 92
2020-03-15 09:00:00 13 3 Oeste 9 Sudoeste 0 -- -- 75
2020-03-15 08:00:00 11.7 6 Sudoeste 10 Sudoeste 0 -- -- 84
2020-03-15 07:00:00 11.1 8 Sur 17 Sur 0 -- -- 83
2020-03-15 06:00:00 10.1 15 Sur 23 Este 1.6 -- -- 92
2020-03-15 05:00:00 10.5 9 Este 18 Este 1.4 -- -- 91
2020-03-15 04:00:00 10.7 8 Sur 15 Sudoeste 0.2 -- -- 92
2020-03-15 03:00:00 10.4 11 Sudoeste 14 Sudoeste 0.6 -- -- 92
2020-03-15 02:00:00 11.1 3 Este 15 Nordeste 0.6 -- -- 89
2020-03-15 01:00:00 11.6 5 Sudoeste 10 Sur 0 -- -- 81
2020-03-15 00:00:00 10.3 6 Sur 9 Sur 0 -- -- 79
2020-03-14 23:00:00 10.4 6 Sur 10 Sudoeste 0 -- -- 88
2020-03-14 22:00:00 11.3 3 Sudoeste 5 Sur 0 -- -- 85
2020-03-14 21:00:00 12.4 0 Calma 8 Noroeste 0 -- -- 78
2020-03-14 20:00:00 13 7 Noroeste 10 Noroeste 0 -- -- 81
2020-03-14 19:00:00 13.4 6 Noroeste 12 Noroeste 0 -- -- 79
2020-03-14 18:00:00 13.7 8 Norte 18 Nordeste 0 -- -- 77
2020-03-14 17:00:00 14.8 10 Norte 20 Norte 0 -- -- 71
2020-03-14 16:00:00 15.1 12 Nordeste 25 Norte 0 -- -- 72
2020-03-14 15:00:00 16 14 Norte 26 Norte 0 -- -- 74
2020-03-14 14:00:00 16.3 13 Norte 24 Nordeste 0 -- -- 72
2020-03-14 13:00:00 15.2 15 Nordeste 28 Norte 0 -- -- 75
2020-03-14 12:00:00 15.2 10 Nordeste 19 Nordeste 0 -- -- 72
2020-03-14 11:00:00 15 7 Nordeste 17 Este 0 -- -- 72
2020-03-14 10:00:00 14.7 6 Este 19 Sudeste 0 -- -- 69
2020-03-14 09:00:00 14.2 5 Sudeste 14 Sudeste 0 -- -- 72
2020-03-14 08:00:00 11.7 9 Sur 13 Sudeste 0 -- -- 82
2020-03-14 07:00:00 11.1 10 Sur 15 Sudeste 0 -- -- 82
2020-03-14 06:00:00 12.1 7 Sudeste 14 Sur 0 -- -- 85
2020-03-14 05:00:00 11 13 Sur 16 Sur 0 -- -- 79
2020-03-14 04:00:00 11.5 10 Sur 15 Sudeste 0 -- -- 82
2020-03-14 03:00:00 11.9 8 Sur 16 Sudeste 0 -- -- 81
2020-03-14 02:00:00 12.2 9 Sudeste 19 Sudeste 0 -- -- 79
2020-03-14 01:00:00 13.1 6 Sudeste 18 Este 0 -- -- 81
2020-03-14 00:00:00 13.1 6 Sudeste 17 Este 0 -- -- 81
2020-03-13 23:00:00 13.3 12 Este 18 Este 0 -- -- 85
2020-03-13 22:00:00 13.3 6 Sudeste 18 Este 0 -- -- 83
2020-03-13 21:00:00 13.9 8 Este 15 Este 0 -- -- 84
2020-03-13 20:00:00 13.8 7 Sudeste 18 Este 0 -- -- 80
2020-03-13 19:00:00 14.3 9 Este 20 Nordeste 0 -- -- 81
2020-03-13 18:00:00 14.6 12 Nordeste 22 Nordeste 0 -- -- 82
2020-03-13 17:00:00 15.9 12 Nordeste 22 Norte 0 -- -- 78
2020-03-13 16:00:00 15.5 12 Nordeste 25 Nordeste 0 -- -- 80
2020-03-13 15:00:00 16.1 11 Nordeste 18 Nordeste 0 -- -- 76
2020-03-13 14:00:00 16.5 8 Norte 18 Norte 0 -- -- 75
2020-03-13 13:00:00 17 7 Nordeste 17 Norte 0 -- -- 72
2020-03-13 12:00:00 16.3 10 Nordeste 17 Nordeste 0 -- -- 75
2020-03-13 11:00:00 16.5 5 Noroeste 15 Oeste 0 -- -- 74
2020-03-13 10:00:00 15.5 6 Oeste 13 Noroeste 0 -- -- 78
2020-03-13 09:00:00 13.9 4 Oeste 11 Sudoeste 0 -- -- 87
2020-03-13 08:00:00 11.4 8 Sudoeste 11 Sudoeste 0 -- -- 90
2020-03-13 07:00:00 10.8 9 Sudoeste 14 Sudoeste 0 -- -- 90
2020-03-13 06:00:00 10.7 8 Sudoeste 10 Sudoeste 0 -- -- 90
2020-03-13 05:00:00 10.7 6 Sudoeste 12 Sudoeste 0 -- -- 87
2020-03-13 04:00:00 11.5 6 Sur 10 Sudoeste 0 -- -- 91
2020-03-13 03:00:00 11.3 5 Sudoeste 12 Sudoeste 0 -- -- 86
2020-03-13 02:00:00 11.8 5 Sudoeste 12 Sudoeste 0 -- -- 83
2020-03-13 01:00:00 12.5 6 Sudoeste 10 Sudoeste 0 -- -- 90
2020-03-13 00:00:00 11.8 4 Sudoeste 9 Sudoeste 0 -- -- 71
2020-03-12 23:00:00 12 6 Sudoeste 12 Oeste 0 -- -- 85
2020-03-12 22:00:00 12.4 3 Sur 7 Sur 0 -- -- 76
2020-03-12 21:00:00 13.1 3 Sur 6 Sudoeste 0 -- -- 89
2020-03-12 20:00:00 14.8 0 Calma 8 Sudoeste 0 -- -- 92
2020-03-12 19:00:00 16.1 3 Noroeste 9 Norte 0 -- -- 91
2020-03-12 18:00:00 16.9 4 Norte 12 Noroeste 0 -- -- 85
2020-03-12 17:00:00 19.6 7 Noroeste 15 Noroeste 0 -- -- 75
2020-03-12 16:00:00 20.6 6 Norte 14 Norte 0 -- -- 68
2020-03-12 15:00:00 20.8 6 Noroeste 21 Noroeste 0 -- -- 68
2020-03-12 14:00:00 20.6 7 Noroeste 16 Noroeste 0 -- -- 67
2020-03-12 13:00:00 20.9 7 Noroeste 14 Noroeste 0 -- -- 65
2020-03-12 12:00:00 22.9 5 Noroeste 13 Norte 0 -- -- 46
2020-03-12 11:00:00 24.4 4 Noroeste 10 Norte 0 -- -- 26
2020-03-12 10:00:00 23.3 5 Noroeste 12 Este 0 -- -- 15
2020-03-12 09:00:00 22.2 3 Nordeste 16 Sur 0 -- -- 15
2020-03-12 08:00:00 21.1 11 Sudoeste 17 Sur 0 -- -- 10
2020-03-12 07:00:00 18.7 9 Sudoeste 25 Sur 0 -- -- 13
2020-03-12 06:00:00 17.9 20 Sur 32 Sur 0 -- -- 13
2020-03-12 05:00:00 18.9 20 Sur 25 Sur 0 -- -- 15
2020-03-12 04:00:00 16.7 9 Sur 19 Sur 0 -- -- 19
2020-03-12 03:00:00 16.7 9 Sudeste 16 Sur 0 -- -- 19
2020-03-12 02:00:00 16.1 7 Sur 21 Sur 0 -- -- 18
2020-03-12 01:00:00 17.3 11 Sur 18 Sur 0 -- -- 16
2020-03-12 00:00:00 17 10 Sur 19 Sur 0 -- -- 16
2020-03-11 23:00:00 17.4 15 Sur 20 Sur 0 -- -- 16
2020-03-11 22:00:00 18.8 12 Sur 18 Sur 0 -- -- 14
2020-03-11 21:00:00 19.2 14 Sur 19 Sur 0 -- -- 15
2020-03-11 20:00:00 20.1 13 Sur 18 Sur 0 -- -- 15
2020-03-11 19:00:00 23 0 Calma 6 Norte 0 -- -- 23
2020-03-11 18:00:00 24.1 4 Noroeste 10 Norte 0 -- -- 20
2020-03-11 17:00:00 25.3 5 Noroeste 12 Norte 0 -- -- 19
2020-03-11 16:00:00 25.2 2 Noroeste 11 Norte 0 -- -- 10
2020-03-11 15:00:00 24.4 4 Norte 10 Norte 0 -- -- 28
2020-03-11 14:00:00 25 6 Norte 10 Norte 0 -- -- 19
2020-03-11 13:00:00 24.3 4 Norte 12 Norte 0 -- -- 18
2020-03-11 12:00:00 26 6 Noroeste 11 Noroeste 0 -- -- 19
2020-03-11 11:00:00 24.8 3 Norte 11 Norte 0 -- -- 22
2020-03-11 10:00:00 23.3 3 Sur 12 Sur 0 -- -- 13
2020-03-11 09:00:00 19.6 3 Sudoeste 17 Sur 0 -- -- 19
2020-03-11 08:00:00 17.6 10 Sur 13 Sur 0 -- -- 15
2020-03-11 07:00:00 15.5 5 Sur 13 Sur 0 -- -- 17
2020-03-11 06:00:00 15.2 6 Sur 13 Sur 0 -- -- 16
2020-03-11 05:00:00 14.8 6 Sur 15 Sur 0 -- -- 16
2020-03-11 04:00:00 14.8 5 Sur 15 Sudeste 0 -- -- 17
2020-03-11 03:00:00 14.1 6 Sur 12 Sur 0 -- -- 15
2020-03-11 02:00:00 14.2 4 Sur 15 Sur 0 -- -- 14
2020-03-11 01:00:00 14 8 Sur 13 Sur 0 -- -- 21
2020-03-11 00:00:00 14.1 9 Sur 13 Sur 0 -- -- 14
2020-03-10 23:00:00 14 6 Sur 11 Sur 0 -- -- 18
2020-03-10 22:00:00 14.9 5 Sur 13 Sur 0 -- -- 21
2020-03-10 21:00:00 14.9 11 Sur 16 Sur 0 -- -- 17
2020-03-10 20:00:00 15.4 11 Sur 16 Sur 0 -- -- 29
2020-03-10 19:00:00 17.4 3 Sur 8 Noroeste 0 -- -- 74
2020-03-10 18:00:00 20.7 5 Noroeste 13 Noroeste 0 -- -- 65
2020-03-10 17:00:00 21.1 6 Noroeste 13 Norte 0 -- -- 64
2020-03-10 16:00:00 21.1 7 Noroeste 17 Noroeste 0 -- -- 63
2020-03-10 15:00:00 21.1 9 Noroeste 15 Noroeste 0 -- -- 62
2020-03-10 14:00:00 22.4 8 Noroeste 14 Noroeste 0 -- -- 56
2020-03-10 13:00:00 23 7 Noroeste 12 Noroeste 0 -- -- 53
2020-03-10 12:00:00 24.3 4 Norte 11 Noroeste 0 -- -- 23
2020-03-10 11:00:00 24.2 4 Noroeste 9 Norte 0 -- -- 17
2020-03-10 10:00:00 23.7 4 Noroeste 12 Sur 0 -- -- 18
2020-03-10 09:00:00 22.2 9 Sur 22 Sur 0 -- -- 11
2020-03-10 08:00:00 19.6 20 Sur 42 Sur 0 -- -- 6
2020-03-10 07:00:00 18.9 24 Sur 37 Sur 0 -- -- 5
2020-03-10 06:00:00 19 21 Sur 33 Sur 0 -- -- 15
2020-03-10 05:00:00 18.3 25 Sur 29 Sur 0 -- -- 14
2020-03-10 04:00:00 16.9 19 Sur 24 Sur 0 -- -- 21
2020-03-10 03:00:00 19.2 14 Sudeste 24 Sudeste 0 -- -- 19
2020-03-10 02:00:00 17.5 12 Sur 22 Sudoeste 0 -- -- 22
2020-03-10 01:00:00 17.5 7 Sudoeste 16 Sur 0 -- -- 23
2020-03-10 00:00:00 19.2 5 Sudeste 27 Sudeste 0 -- -- 22
2020-03-09 23:00:00 18.7 5 Este 23 Sudeste 0 -- -- 24
2020-03-09 22:00:00 18 9 Sudeste 21 Este 0 -- -- 23
2020-03-09 21:00:00 19.1 10 Este 20 Sudeste 0 -- -- 22
2020-03-09 20:00:00 19.2 7 Sudeste 19 Este 0 -- -- 21
2020-03-09 19:00:00 19.2 0 Calma 12 Sudeste 0 -- -- 69
2020-03-09 18:00:00 20.6 5 Norte 17 Noroeste 0 -- -- 68
2020-03-09 17:00:00 21.3 6 Noroeste 15 Noroeste 0 -- -- 63
2020-03-09 16:00:00 21.5 6 Norte 14 Norte 0 -- -- 64
2020-03-09 15:00:00 21.5 9 Noroeste 16 Noroeste 0 -- -- 64
2020-03-09 14:00:00 22.1 8 Norte 14 Noroeste 0 -- -- 61
2020-03-09 13:00:00 23.5 5 Noroeste 26 Oeste 0 -- -- 51
2020-03-09 12:00:00 25.4 10 Sudoeste 34 Sudeste 0 -- -- 17
2020-03-09 11:00:00 23.6 21 Sur 38 Sur 0 -- -- 19
2020-03-09 10:00:00 22.7 17 Sur 33 Sudeste 0 -- -- 19
2020-03-09 09:00:00 16.9 0 Calma 12 Noroeste 0 -- -- 52
2020-03-09 08:00:00 12.4 3 Sur 19 Este 0 -- -- 74
2020-03-09 07:00:00 19 15 Sudeste 27 Sudeste 0 -- -- 16
2020-03-09 06:00:00 19 22 Sur 32 Sur 0 -- -- 17
2020-03-09 05:00:00 19.6 25 Sur 33 Sur 0 -- -- 17
2020-03-09 04:00:00 19.8 23 Sur 30 Sur 0 -- -- 16
2020-03-09 03:00:00 16.8 13 Sudeste 22 Sur 0 -- -- 23
2020-03-09 02:00:00 15.7 5 Este 12 Sur 0 -- -- 37
2020-03-09 01:00:00 17.2 8 Sur 22 Sur 0 -- -- 57
2020-03-09 00:00:00 18.4 13 Sur 18 Sur 0 -- -- 19
2020-03-08 23:00:00 19.1 14 Sur 24 Sur 0 -- -- 18
2020-03-08 22:00:00 21.4 17 Sur 29 Sur 0 -- -- 14
2020-03-08 21:00:00 21.6 14 Sur 26 Sur 0 -- -- 13
2020-03-08 20:00:00 22.1 12 Sur 25 Sur 0 -- -- 13
2020-03-08 19:00:00 21.8 7 Sur 23 Sudoeste 0 -- -- 17
2020-03-08 18:00:00 21 6 Norte 23 Sudeste 0 -- -- 25
2020-03-08 17:00:00 21.3 9 Norte 26 Sur 0 -- -- 65
2020-03-08 16:00:00 20.5 8 Noroeste 17 Noroeste 0 -- -- 69
2020-03-08 15:00:00 20.9 10 Noroeste 21 Noroeste 0 -- -- 65
2020-03-08 14:00:00 19.6 9 Noroeste 19 Noroeste 0 -- -- 72
2020-03-08 13:00:00 19.2 13 Noroeste 21 Noroeste 0 -- -- 72
2020-03-08 12:00:00 18.5 6 Noroeste 15 Norte 0 -- -- 75
2020-03-08 11:00:00 17.8 6 Norte 14 Norte 0 -- -- 76
2020-03-08 10:00:00 15.8 5 Norte 9 Nordeste 0 -- -- 81
2020-03-08 09:00:00 13.4 4 Sur 10 Sur 0 -- -- 89
2020-03-08 08:00:00 12.5 7 Sur 13 Sur 0 -- -- 90
2020-03-08 07:00:00 11.9 7 Sur 15 Sudeste 0 -- -- 88
2020-03-08 06:00:00 11.3 9 Sudeste 13 Sur 0 -- -- 85
2020-03-08 05:00:00 11.9 12 Sur 16 Sur 0 -- -- 85
2020-03-08 04:00:00 12.4 8 Sur 17 Sur 0 -- -- 84
2020-03-08 03:00:00 11.9 10 Sur 15 Sudeste 0 -- -- 87
2020-03-08 02:00:00 12.2 8 Sur 15 Sur 0 -- -- 82
2020-03-08 01:00:00 12.6 10 Sur 19 Sur 0 -- -- 82
2020-03-08 00:00:00 12.4 6 Sudeste 14 Sur 0 -- -- 79
2020-03-07 23:00:00 12.9 8 Sudeste 15 Este 0 -- -- 81
2020-03-07 22:00:00 13.3 6 Este 15 Este 0 -- -- 82
2020-03-07 21:00:00 13.4 6 Sudeste 13 Este 0 -- -- 82
2020-03-07 20:00:00 13.6 6 Este 19 Este 0 -- -- 81
2020-03-07 19:00:00 13.9 11 Este 23 Este 0 -- -- 79
2020-03-07 18:00:00 15 12 Nordeste 23 Nordeste 0 -- -- 79
2020-03-07 17:00:00 15.5 13 Nordeste 26 Nordeste 0 -- -- 76
2020-03-07 16:00:00 17.9 14 Norte 25 Nordeste 0 -- -- 64
2020-03-07 15:00:00 16.4 13 Nordeste 26 Nordeste 0 -- -- 72
2020-03-07 14:00:00 16.3 18 Nordeste 29 Nordeste 0 -- -- 71
2020-03-07 13:00:00 16.4 19 Nordeste 30 Nordeste 0 -- -- 68
2020-03-07 12:00:00 15.5 15 Nordeste 27 Norte 0 -- -- 70
2020-03-07 11:00:00 15.5 14 Nordeste 24 Nordeste 0 -- -- 74
2020-03-07 10:00:00 15.3 10 Este 21 Sudeste 0 -- -- 68
2020-03-07 09:00:00 12.9 3 Este 12 Este 0 -- -- 87
2020-03-07 08:00:00 12.5 3 Sudeste 9 Sur 0 -- -- 83
2020-03-07 07:00:00 12.2 0 Calma 15 Sur 0 -- -- 80
2020-03-07 06:00:00 11.9 7 Sudeste 12 Sur 0 -- -- 78
2020-03-07 05:00:00 11.7 6 Sur 18 Sur 0 -- -- 80
2020-03-07 04:00:00 10.8 9 Sur 20 Sur 0 -- -- 80
2020-03-07 03:00:00 9.9 15 Sur 21 Sudeste 0 -- -- 78
2020-03-07 02:00:00 8.5 11 Sudeste 19 Sudeste 0 -- -- 77
2020-03-07 01:00:00 9 9 Sur 15 Sur 0 -- -- 78
2020-03-07 00:00:00 8.7 12 Sur 17 Sur 0 -- -- 75
2020-03-06 23:00:00 9.6 9 Sur 18 Sudeste 0 -- -- 71
2020-03-06 22:00:00 12.1 12 Este 22 Este 0 -- -- 76
2020-03-06 21:00:00 12 9 Sudeste 23 Sur 0 -- -- 75
2020-03-06 20:00:00 11.4 9 Sudeste 22 Este 0 -- -- 72
2020-03-06 19:00:00 13.6 11 Este 26 Este 0 -- -- 71
2020-03-06 18:00:00 15.9 15 Este 31 Nordeste 0 -- -- 63
2020-03-06 17:00:00 16.7 16 Nordeste 33 Nordeste 0 -- -- 60
2020-03-06 16:00:00 17 19 Nordeste 32 Nordeste 0 -- -- 62
2020-03-06 15:00:00 16.7 18 Nordeste 40 Nordeste 0 -- -- 63
2020-03-06 14:00:00 16.8 18 Este 36 Nordeste 0 -- -- 60
2020-03-06 13:00:00 16.4 18 Nordeste 32 Este 0 -- -- 63
2020-03-06 12:00:00 15.9 15 Este 25 Nordeste 0 -- -- 66
2020-03-06 11:00:00 14.4 13 Este 23 Este 0 -- -- 73
2020-03-06 10:00:00 13.9 12 Este 19 Este 0 -- -- 78
2020-03-06 09:00:00 13 3 Nordeste 16 Este 0 -- -- 89
2020-03-06 08:00:00 12.1 5 Este 14 Este 0 -- -- 93
2020-03-06 07:00:00 12.2 5 Este 25 Este 0 -- -- 94
2020-03-06 06:00:00 12.6 10 Este 21 Este 0.4 -- -- 95
2020-03-06 05:00:00 13.2 3 Este 12 Sur 0 -- -- 93
2020-03-06 04:00:00 13.5 8 Este 15 Este 0 -- -- 95
2020-03-06 03:00:00 13.8 2 Sudoeste 8 Nordeste 0.6 -- -- 95
2020-03-06 02:00:00 13.9 2 Nordeste 21 Sudoeste 0.4 -- -- 91
2020-03-06 01:00:00 14.6 5 Sudeste 11 Sudoeste 0 -- -- 82
2020-03-06 00:00:00 14.3 4 Este 18 Sudeste 0 -- -- 85
2020-03-05 23:00:00 14.4 4 Sudeste 14 Sur 0 -- -- 83
2020-03-05 22:00:00 14.4 8 Sudeste 17 Sur 0 -- -- 80
2020-03-05 21:00:00 14.1 7 Este 20 Sudeste 0 -- -- 85
2020-03-05 20:00:00 13.4 8 Este 20 Este 0 -- -- 84
2020-03-05 19:00:00 14.4 8 Nordeste 27 Nordeste 0 -- -- 81
2020-03-05 18:00:00 16.3 15 Nordeste 27 Nordeste 0 -- -- 77
2020-03-05 17:00:00 16.9 14 Nordeste 25 Nordeste 0 -- -- 75
2020-03-05 16:00:00 17.8 10 Nordeste 26 Nordeste 0 -- -- 72
2020-03-05 15:00:00 17.7 15 Nordeste 30 Nordeste 0 -- -- 74
2020-03-05 14:00:00 17.8 15 Nordeste 28 Nordeste 0 -- -- 77
2020-03-05 13:00:00 16.4 19 Nordeste 27 Nordeste 0 -- -- 82
2020-03-05 12:00:00 16.6 10 Norte 21 Nordeste 0 -- -- 80
2020-03-05 11:00:00 17 7 Norte 17 Norte 0 -- -- 78
2020-03-05 10:00:00 18.1 0 Calma 13 Sudeste 0 -- -- 73
2020-03-05 09:00:00 14.6 8 Sur 14 Sudeste 0 -- -- 79
2020-03-05 08:00:00 12.4 8 Sudoeste 15 Sudeste 0 -- -- 87
2020-03-05 07:00:00 11.9 6 Sudeste 13 Sudeste 0 -- -- 91
2020-03-05 06:00:00 12.5 7 Sur 13 Sur 0 -- -- 94
2020-03-05 05:00:00 12.9 5 Sur 12 Norte 0 -- -- 95
2020-03-05 04:00:00 12.9 0 Calma 11 Sudeste 0 -- -- 94
2020-03-05 03:00:00 12.9 4 Sur 17 Oeste 0 -- -- 95
2020-03-05 02:00:00 13.3 4 Sudoeste 10 Sudoeste 0 -- -- 95
2020-03-05 01:00:00 14.3 6 Sudoeste 10 Norte 0 -- -- 85
2020-03-05 00:00:00 12.8 3 Sudeste 10 Sudeste 0 -- -- 85